KMRYKSQL

Guest
Details From KMRY - Monterey Peninsula
To KSQL - San Carlos
Flight Number -
Tags decoded
Created
Modified
Stats Distance 60 nm / 111 km
Max Altitude 0 ft / 0 m
Waypoints 5
Social Downloads 4
Likes 0
Share VATSIM

Download

Looking for another format? Having issues loading an existing format? Contact us
Advertisement - Login to hide

Notes

Requested: KMRY SANTY V25 OSI KSQL

Route

KMRY SANTY V25 OSI KSQL

ID Type Via Altitude Latitude Longitude Leg Dist Tot Dist Heading (true) Name
O KMRY APT - 0 ft / 0 m 36.58692˚ -121.84193˚ - 0 nm - Monterey Peninsula
SANTY FIX - 0 ft / 0 m 36.97924˚ -122.07308˚ 26 nm 26 nm 335° / 335° -
SAPID FIX V25 (AWY-LO) 0 ft / 0 m 37.19131˚ -122.17972˚ 13 nm 39 nm 338° / 338° -
OSI VOR V25 (AWY-LO) 0 ft / 0 m 37.39250˚ -122.28131˚ 13 nm 52 nm 338° / 338° WOODSIDE VORTAC
O KSQL APT - 0 ft / 0 m 37.51173˚ -122.24939˚ 7 nm 60 nm 12° / 12° San Carlos

Altitude Profile

Advertisement - Login to hide

KMRY

Details ICAO KMRY (MRY)
Name Monterey Peninsula
Region United States
Timezone America/Los_Angeles (UTC-7.0)
Stats Elevation 257 ft / 78 m (AMSL)
Location 36.586916° -121.841927°
Runways 2
Magnetic Variation 13.118° E

METAR

KMRY 231654Z 26004KT 10SM SCT017 OVC025 13/10 A2999 RMK AO2 SLP166 T01330100

Decode

TAF

TAF KMRY 231120Z 2312/2412 VRB04KT 6SM BR OVC011 TEMPO 2312/2315 OVC007 FM231900 25011KT P6SM BKN018 FM232300 24013KT P6SM OVC014 FM240200 24008KT P6SM OVC010 FM240500 20003KT P6SM OVC007 FM241000 00000KT P6SM OVC007

Decode

Departure Runways

ID Width Length Bearing (true) Bearing (mag) Surface Threshold Offset Overrun Length
10L 59 ft / 18 m 3,508 ft / 1,069 m 112.85° 99.73° Asphalt 0 ft / 0 m 230 ft / 70 m
10R 151 ft / 46 m 7,605 ft / 2,318 m 112.84° 99.72° Asphalt 0 ft / 0 m 174 ft / 53 m
28L 151 ft / 46 m 7,605 ft / 2,318 m 292.85° 279.73° Asphalt 1,001 ft / 305 m 190 ft / 58 m
28R 59 ft / 18 m 3,508 ft / 1,069 m 292.85° 279.73° Asphalt 0 ft / 0 m 0 ft / 0 m

KSQL

Details ICAO KSQL (SQL)
Name San Carlos
Region United States
Timezone America/Los_Angeles (UTC-7.0)
Stats Elevation 5 ft / 2 m (AMSL)
Location 37.511735° -122.249386°
Runways 1
Magnetic Variation 13.380° E

METAR

KSQL 231647Z 26007KT 10SM OVC021 14/10 A2997

Decode

TAF

Not found

Destination Runways

ID Width Length Bearing (true) Bearing (mag) Surface Threshold Offset Overrun Length
12 75 ft / 23 m 2,619 ft / 798 m 138.39° 125.01° Asphalt 0 ft / 0 m 299 ft / 91 m
30 75 ft / 23 m 2,619 ft / 798 m 318.40° 305.02° Asphalt 0 ft / 0 m 135 ft / 41 m